sensor_id;sensor_type;location;lat;lon;timestamp;pressure;altitude;pressure_sealevel;temperature;humidity
19596;BME280;9945;46.010;8.946;2023-02-18T00:00:27;98402.28;;;11.12;67.15
19596;BME280;9945;46.010;8.946;2023-02-18T00:02:54;98402.75;;;11.06;67.30
19596;BME280;9945;46.010;8.946;2023-02-18T00:05:21;98393.94;;;11.07;66.87
19596;BME280;9945;46.010;8.946;2023-02-18T00:07:48;98393.09;;;11.07;67.54
19596;BME280;9945;46.010;8.946;2023-02-18T00:10:16;98388.25;;;11.02;67.45
19596;BME280;9945;46.010;8.946;2023-02-18T00:12:43;98393.97;;;10.96;67.82
19596;BME280;9945;46.010;8.946;2023-02-18T00:15:10;98391.38;;;10.96;68.26
19596;BME280;9945;46.010;8.946;2023-02-18T00:17:38;98391.72;;;10.91;68.97
19596;BME280;9945;46.010;8.946;2023-02-18T00:20:06;98386.13;;;10.96;69.49
19596;BME280;9945;46.010;8.946;2023-02-18T00:22:34;98375.16;;;11.02;68.73
19596;BME280;9945;46.010;8.946;2023-02-18T00:25:01;98379.66;;;11.00;68.47
19596;BME280;9945;46.010;8.946;2023-02-18T00:27:27;98372.63;;;11.00;68.66
19596;BME280;9945;46.010;8.946;2023-02-18T00:29:54;98368.34;;;10.99;68.49
19596;BME280;9945;46.010;8.946;2023-02-18T00:32:21;98371.34;;;10.95;68.83
19596;BME280;9945;46.010;8.946;2023-02-18T00:34:49;98364.69;;;10.91;68.78
19596;BME280;9945;46.010;8.946;2023-02-18T00:37:16;98363.00;;;10.90;68.97
19596;BME280;9945;46.010;8.946;2023-02-18T00:39:43;98363.84;;;10.90;67.63
19596;BME280;9945;46.010;8.946;2023-02-18T00:42:10;98361.09;;;10.92;67.75
19596;BME280;9945;46.010;8.946;2023-02-18T00:44:37;98357.19;;;10.86;67.80
19596;BME280;9945;46.010;8.946;2023-02-18T00:47:04;98362.31;;;10.77;68.30
19596;BME280;9945;46.010;8.946;2023-02-18T00:49:31;98356.47;;;10.73;67.23
19596;BME280;9945;46.010;8.946;2023-02-18T00:51:59;98357.69;;;10.69;67.63
19596;BME280;9945;46.010;8.946;2023-02-18T00:54:26;98354.56;;;10.64;68.55
19596;BME280;9945;46.010;8.946;2023-02-18T00:56:52;98349.94;;;10.68;67.74
19596;BME280;9945;46.010;8.946;2023-02-18T00:59:19;98345.16;;;10.73;66.59
19596;BME280;9945;46.010;8.946;2023-02-18T01:01:46;98345.75;;;10.76;66.16
19596;BME280;9945;46.010;8.946;2023-02-18T01:04:13;98354.22;;;10.69;66.56
19596;BME280;9945;46.010;8.946;2023-02-18T01:06:40;98350.31;;;10.63;66.44
19596;BME280;9945;46.010;8.946;2023-02-18T01:09:09;98351.94;;;10.64;67.09
19596;BME280;9945;46.010;8.946;2023-02-18T01:11:35;98354.22;;;10.57;67.12
19596;BME280;9945;46.010;8.946;2023-02-18T01:14:03;98352.22;;;10.50;67.57
19596;BME280;9945;46.010;8.946;2023-02-18T01:16:30;98346.84;;;10.51;67.38
19596;BME280;9945;46.010;8.946;2023-02-18T01:18:57;98347.56;;;10.53;67.68
19596;BME280;9945;46.010;8.946;2023-02-18T01:21:23;98345.06;;;10.52;68.18
19596;BME280;9945;46.010;8.946;2023-02-18T01:23:50;98345.06;;;10.52;67.71
19596;BME280;9945;46.010;8.946;2023-02-18T01:26:18;98342.47;;;10.52;67.73
19596;BME280;9945;46.010;8.946;2023-02-18T01:28:45;98355.19;;;10.45;68.64
19596;BME280;9945;46.010;8.946;2023-02-18T01:31:13;98351.38;;;10.38;69.62
19596;BME280;9945;46.010;8.946;2023-02-18T01:33:40;98341.28;;;10.45;69.73
19596;BME280;9945;46.010;8.946;2023-02-18T01:36:08;98347.44;;;10.55;68.69
19596;BME280;9945;46.010;8.946;2023-02-18T01:38:36;98342.34;;;10.53;68.90
19596;BME280;9945;46.010;8.946;2023-02-18T01:41:03;98342.69;;;10.49;68.91
19596;BME280;9945;46.010;8.946;2023-02-18T01:43:33;98346.25;;;10.48;69.27
19596;BME280;9945;46.010;8.946;2023-02-18T01:46:09;98343.63;;;10.48;70.38
19596;BME280;9945;46.010;8.946;2023-02-18T01:48:40;98337.69;;;10.35;71.31
19596;BME280;9945;46.010;8.946;2023-02-18T01:51:11;98336.97;;;10.33;70.94
19596;BME280;9945;46.010;8.946;2023-02-18T01:53:45;98336.25;;;10.31;70.88
19596;BME280;9945;46.010;8.946;2023-02-18T01:56:16;98326.50;;;10.33;70.64
19596;BME280;9945;46.010;8.946;2023-02-18T01:58:46;98329.84;;;10.35;69.76
19596;BME280;9945;46.010;8.946;2023-02-18T02:01:14;98338.16;;;10.40;70.13
19596;BME280;9945;46.010;8.946;2023-02-18T02:03:41;98332.09;;;10.39;70.01
19596;BME280;9945;46.010;8.946;2023-02-18T02:06:14;98336.13;;;10.21;70.11
19596;BME280;9945;46.010;8.946;2023-02-18T02:08:43;98330.75;;;10.11;71.04
19596;BME280;9945;46.010;8.946;2023-02-18T02:11:20;98332.06;;;10.17;69.49
19596;BME280;9945;46.010;8.946;2023-02-18T02:14:09;98317.31;;;10.16;69.50
19596;BME280;9945;46.010;8.946;2023-02-18T02:16:42;98324.31;;;10.15;69.92
19596;BME280;9945;46.010;8.946;2023-02-18T02:25:28;98316.34;;;10.17;69.94
19596;BME280;9945;46.010;8.946;2023-02-18T02:28:23;98313.66;;;10.18;71.08
19596;BME280;9945;46.010;8.946;2023-02-18T02:31:20;98314.50;;;10.19;71.45
19596;BME280;9945;46.010;8.946;2023-02-18T02:36:54;98314.91;;;10.13;70.81
19596;BME280;9945;46.010;8.946;2023-02-18T02:39:30;98312.28;;;10.13;69.94
19596;BME280;9945;46.010;8.946;2023-02-18T02:42:07;98308.97;;;10.00;71.38
19596;BME280;9945;46.010;8.946;2023-02-18T02:44:41;98301.00;;;10.01;70.97
19596;BME280;9945;46.010;8.946;2023-02-18T02:47:17;98292.22;;;10.02;70.80
19596;BME280;9945;46.010;8.946;2023-02-18T02:49:49;98305.16;;;10.04;71.35
19596;BME280;9945;46.010;8.946;2023-02-18T02:52:25;98295.03;;;9.99;72.74
19596;BME280;9945;46.010;8.946;2023-02-18T02:54:53;98297.66;;;9.99;72.81
19596;BME280;9945;46.010;8.946;2023-02-18T02:57:54;98292.53;;;9.98;73.22
19596;BME280;9945;46.010;8.946;2023-02-18T03:00:28;98297.31;;;9.93;73.54
19596;BME280;9945;46.010;8.946;2023-02-18T03:03:31;98296.38;;;9.94;73.31
19596;BME280;9945;46.010;8.946;2023-02-18T03:06:15;98296.00;;;9.98;72.03
19596;BME280;9945;46.010;8.946;2023-02-18T03:08:55;98292.81;;;9.95;73.30
19596;BME280;9945;46.010;8.946;2023-02-18T03:11:28;98293.13;;;9.90;73.00
19596;BME280;9945;46.010;8.946;2023-02-18T03:14:07;98297.53;;;9.90;74.37
19596;BME280;9945;46.010;8.946;2023-02-18T03:16:42;98297.88;;;9.96;72.43
19596;BME280;9945;46.010;8.946;2023-02-18T03:19:19;98308.97;;;10.00;72.29
19596;BME280;9945;46.010;8.946;2023-02-18T03:21:51;98297.06;;;9.96;72.00
19596;BME280;9945;46.010;8.946;2023-02-18T03:24:23;98304.91;;;9.96;73.04
19596;BME280;9945;46.010;8.946;2023-02-18T03:26:57;98307.28;;;9.87;72.11
19596;BME280;9945;46.010;8.946;2023-02-18T03:29:25;98303.72;;;9.88;72.14
19596;BME280;9945;46.010;8.946;2023-02-18T03:31:55;98303.97;;;9.85;72.45
19596;BME280;9945;46.010;8.946;2023-02-18T03:34:25;98299.78;;;9.83;72.96
19596;BME280;9945;46.010;8.946;2023-02-18T03:36:56;98300.59;;;9.72;74.55
19596;BME280;9945;46.010;8.946;2023-02-18T03:39:26;98297.75;;;9.75;72.64
19596;BME280;9945;46.010;8.946;2023-02-18T03:41:54;98305.22;;;9.80;73.63
19596;BME280;9945;46.010;8.946;2023-02-18T03:44:23;98307.28;;;9.76;74.35
19596;BME280;9945;46.010;8.946;2023-02-18T03:46:50;98304.97;;;9.72;73.10
19596;BME280;9945;46.010;8.946;2023-02-18T03:49:17;98301.53;;;9.71;73.73
19596;BME280;9945;46.010;8.946;2023-02-18T03:51:44;98299.03;;;9.70;73.80
19596;BME280;9945;46.010;8.946;2023-02-18T03:54:11;98296.56;;;9.68;73.41
19596;BME280;9945;46.010;8.946;2023-02-18T03:56:40;98299.16;;;9.68;73.59
19596;BME280;9945;46.010;8.946;2023-02-18T03:59:08;98308.91;;;9.66;74.67
19596;BME280;9945;46.010;8.946;2023-02-18T04:01:35;98307.59;;;9.61;72.95
19596;BME280;9945;46.010;8.946;2023-02-18T04:04:02;98312.31;;;9.56;74.25
19596;BME280;9945;46.010;8.946;2023-02-18T04:06:29;98311.72;;;9.52;74.89
19596;BME280;9945;46.010;8.946;2023-02-18T04:08:56;98310.53;;;9.56;73.64
19596;BME280;9945;46.010;8.946;2023-02-18T04:11:23;98303.88;;;9.52;72.66
19596;BME280;9945;46.010;8.946;2023-02-18T04:13:51;98311.16;;;9.60;73.64
19596;BME280;9945;46.010;8.946;2023-02-18T04:16:18;98303.41;;;9.58;73.15
19596;BME280;9945;46.010;8.946;2023-02-18T04:18:45;98305.19;;;9.58;73.36
19596;BME280;9945;46.010;8.946;2023-02-18T04:21:12;98306.88;;;9.59;73.11
19596;BME280;9945;46.010;8.946;2023-02-18T04:23:38;98310.06;;;9.51;72.37
19596;BME280;9945;46.010;8.946;2023-02-18T04:26:05;98304.41;;;9.44;72.08
19596;BME280;9945;46.010;8.946;2023-02-18T04:28:32;98316.06;;;9.40;72.32
19596;BME280;9945;46.010;8.946;2023-02-18T04:31:00;98308.44;;;9.37;71.30
19596;BME280;9945;46.010;8.946;2023-02-18T04:33:27;98300.03;;;9.45;72.61
19596;BME280;9945;46.010;8.946;2023-02-18T04:35:54;98306.81;;;9.47;72.35
19596;BME280;9945;46.010;8.946;2023-02-18T04:38:21;98313.09;;;9.45;73.35
19596;BME280;9945;46.010;8.946;2023-02-18T04:40:47;98315.38;;;9.49;72.03
19596;BME280;9945;46.010;8.946;2023-02-18T04:43:14;98313.81;;;9.47;72.38
19596;BME280;9945;46.010;8.946;2023-02-18T04:45:41;98312.88;;;9.48;73.36
19596;BME280;9945;46.010;8.946;2023-02-18T04:48:09;98314.06;;;9.44;73.42
19596;BME280;9945;46.010;8.946;2023-02-18T04:50:36;98321.09;;;9.43;73.94
19596;BME280;9945;46.010;8.946;2023-02-18T04:53:03;98316.69;;;9.44;72.64
19596;BME280;9945;46.010;8.946;2023-02-18T04:55:30;98311.31;;;9.34;74.70
19596;BME280;9945;46.010;8.946;2023-02-18T04:57:57;98314.84;;;9.33;74.64
19596;BME280;9945;46.010;8.946;2023-02-18T05:00:24;98322.53;;;9.24;74.76
19596;BME280;9945;46.010;8.946;2023-02-18T05:02:52;98333.53;;;9.16;75.48
19596;BME280;9945;46.010;8.946;2023-02-18T05:05:21;98320.97;;;9.21;75.81
19596;BME280;9945;46.010;8.946;2023-02-18T05:07:47;98319.91;;;9.24;75.07
19596;BME280;9945;46.010;8.946;2023-02-18T05:10:16;98327.97;;;9.21;74.81
19596;BME280;9945;46.010;8.946;2023-02-18T05:12:43;98325.88;;;9.26;75.69
19596;BME280;9945;46.010;8.946;2023-02-18T05:15:10;98329.19;;;9.28;74.17
19596;BME280;9945;46.010;8.946;2023-02-18T05:17:36;98326.91;;;9.23;76.44
19596;BME280;9945;46.010;8.946;2023-02-18T05:20:04;98324.09;;;9.26;75.38
19596;BME280;9945;46.010;8.946;2023-02-18T05:22:33;98316.25;;;9.26;74.47
19596;BME280;9945;46.010;8.946;2023-02-18T05:25:00;98324.09;;;9.26;75.50
19596;BME280;9945;46.010;8.946;2023-02-18T05:27:26;98321.59;;;9.25;76.03
19596;BME280;9945;46.010;8.946;2023-02-18T05:29:53;98320.13;;;9.21;74.29
19596;BME280;9945;46.010;8.946;2023-02-18T05:32:20;98321.91;;;9.20;75.42
19596;BME280;9945;46.010;8.946;2023-02-18T05:34:47;98322.84;;;9.19;76.42
19596;BME280;9945;46.010;8.946;2023-02-18T05:37:14;98316.69;;;9.20;76.18
19596;BME280;9945;46.010;8.946;2023-02-18T05:39:44;98315.63;;;9.23;74.96
19596;BME280;9945;46.010;8.946;2023-02-18T05:42:11;98317.63;;;9.19;76.84
19596;BME280;9945;46.010;8.946;2023-02-18T05:44:38;98314.81;;;9.22;74.77
19596;BME280;9945;46.010;8.946;2023-02-18T05:47:06;98316.00;;;9.18;76.17
19596;BME280;9945;46.010;8.946;2023-02-18T05:49:34;98314.81;;;9.22;75.65
19596;BME280;9945;46.010;8.946;2023-02-18T05:52:02;98318.72;;;9.17;76.94
19596;BME280;9945;46.010;8.946;2023-02-18T05:54:30;98324.97;;;9.14;76.62
19596;BME280;9945;46.010;8.946;2023-02-18T05:56:58;98317.97;;;9.15;75.51
19596;BME280;9945;46.010;8.946;2023-02-18T05:59:25;98316.69;;;9.20;75.00
19596;BME280;9945;46.010;8.946;2023-02-18T06:01:52;98323.13;;;9.03;77.22
19596;BME280;9945;46.010;8.946;2023-02-18T06:04:19;98327.94;;;9.09;76.87
19596;BME280;9945;46.010;8.946;2023-02-18T06:06:46;98323.97;;;9.04;77.71
19596;BME280;9945;46.010;8.946;2023-02-18T06:09:13;98335.97;;;9.06;76.67
19596;BME280;9945;46.010;8.946;2023-02-18T06:11:40;98333.59;;;9.03;76.19
19596;BME280;9945;46.010;8.946;2023-02-18T06:14:08;98340.59;;;9.03;78.02
19596;BME280;9945;46.010;8.946;2023-02-18T06:16:35;98342.34;;;9.02;77.50
19596;BME280;9945;46.010;8.946;2023-02-18T06:19:02;98340.28;;;9.07;75.44
19596;BME280;9945;46.010;8.946;2023-02-18T06:21:28;98346.44;;;9.06;75.70
19596;BME280;9945;46.010;8.946;2023-02-18T06:23:55;98350.94;;;9.04;77.37
19596;BME280;9945;46.010;8.946;2023-02-18T06:26:22;98348.09;;;9.07;77.58
19596;BME280;9945;46.010;8.946;2023-02-18T06:28:49;98350.72;;;9.07;76.16
19596;BME280;9945;46.010;8.946;2023-02-18T06:31:17;98342.97;;;9.06;75.30
19596;BME280;9945;46.010;8.946;2023-02-18T06:33:44;98347.28;;;9.07;76.96
19596;BME280;9945;46.010;8.946;2023-02-18T06:36:12;98349.78;;;9.08;75.62
19596;BME280;9945;46.010;8.946;2023-02-18T06:38:41;98345.50;;;9.07;77.27
19596;BME280;9945;46.010;8.946;2023-02-18T06:41:08;98354.91;;;9.10;77.69
19596;BME280;9945;46.010;8.946;2023-02-18T06:43:36;98348.69;;;9.11;77.12
19596;BME280;9945;46.010;8.946;2023-02-18T06:46:03;98349.78;;;9.08;76.56
19596;BME280;9945;46.010;8.946;2023-02-18T06:48:31;98355.69;;;9.10;76.78
19596;BME280;9945;46.010;8.946;2023-02-18T06:50:58;98358.00;;;9.15;76.43
19596;BME280;9945;46.010;8.946;2023-02-18T06:53:25;98354.34;;;9.18;78.14
19596;BME280;9945;46.010;8.946;2023-02-18T06:55:52;98352.44;;;9.20;77.57
19596;BME280;9945;46.010;8.946;2023-02-18T06:58:19;98344.22;;;9.13;77.44
19596;BME280;9945;46.010;8.946;2023-02-18T07:00:47;98349.25;;;9.27;77.87
19596;BME280;9945;46.010;8.946;2023-02-18T07:03:14;98348.31;;;9.28;76.90
19596;BME280;9945;46.010;8.946;2023-02-18T07:05:42;98352.16;;;9.35;75.87
19596;BME280;9945;46.010;8.946;2023-02-18T07:08:09;98350.03;;;9.40;75.89
19596;BME280;9945;46.010;8.946;2023-02-18T07:10:36;98351.16;;;9.49;75.27
19596;BME280;9945;46.010;8.946;2023-02-18T07:13:03;98352.84;;;9.61;75.77
19596;BME280;9945;46.010;8.946;2023-02-18T07:15:30;98357.16;;;9.73;74.17
19596;BME280;9945;46.010;8.946;2023-02-18T07:17:57;98351.94;;;9.73;75.38
19596;BME280;9945;46.010;8.946;2023-02-18T07:20:25;98353.13;;;9.69;75.23
19596;BME280;9945;46.010;8.946;2023-02-18T07:22:53;98350.78;;;9.77;73.88
19596;BME280;9945;46.010;8.946;2023-02-18T07:25:21;98351.00;;;9.74;74.75
19596;BME280;9945;46.010;8.946;2023-02-18T07:27:47;98346.16;;;9.92;74.65
19596;BME280;9945;46.010;8.946;2023-02-18T07:30:15;98355.59;;;10.06;73.13
19596;BME280;9945;46.010;8.946;2023-02-18T07:32:42;98346.47;;;10.22;72.61
19596;BME280;9945;46.010;8.946;2023-02-18T07:35:10;98349.59;;;10.28;71.82
19596;BME280;9945;46.010;8.946;2023-02-18T07:37:38;98348.19;;;10.46;70.52
19596;BME280;9945;46.010;8.946;2023-02-18T07:40:09;98359.56;;;10.56;68.43
19596;BME280;9945;46.010;8.946;2023-02-18T07:42:37;98363.03;;;10.68;67.59
19596;BME280;9945;46.010;8.946;2023-02-18T07:45:05;98358.03;;;10.65;67.72
19596;BME280;9945;46.010;8.946;2023-02-18T07:47:32;98364.47;;;10.72;67.52
19596;BME280;9945;46.010;8.946;2023-02-18T07:49:59;98357.66;;;10.80;67.48
19596;BME280;9945;46.010;8.946;2023-02-18T07:52:25;98363.25;;;10.87;67.68
19596;BME280;9945;46.010;8.946;2023-02-18T07:54:52;98369.22;;;10.55;68.60
19596;BME280;9945;46.010;8.946;2023-02-18T07:57:21;98373.13;;;10.72;68.51
19596;BME280;9945;46.010;8.946;2023-02-18T07:59:47;98368.34;;;10.99;67.92
19596;BME280;9945;46.010;8.946;2023-02-18T08:02:17;98372.75;;;11.10;68.16
19596;BME280;9945;46.010;8.946;2023-02-18T08:04:44;98369.06;;;11.13;68.25
19596;BME280;9945;46.010;8.946;2023-02-18T08:07:12;98376.53;;;11.28;67.43
19596;BME280;9945;46.010;8.946;2023-02-18T08:09:39;98366.81;;;11.40;66.12
19596;BME280;9945;46.010;8.946;2023-02-18T08:12:06;98365.81;;;11.52;66.08
19596;BME280;9945;46.010;8.946;2023-02-18T08:14:35;98374.44;;;11.75;65.90
19596;BME280;9945;46.010;8.946;2023-02-18T08:17:02;98375.84;;;11.90;65.52
19596;BME280;9945;46.010;8.946;2023-02-18T08:19:28;98371.91;;;11.85;64.91
19596;BME280;9945;46.010;8.946;2023-02-18T08:21:55;98375.16;;;11.77;65.81
19596;BME280;9945;46.010;8.946;2023-02-18T08:24:22;98379.53;;;11.88;65.13
19596;BME280;9945;46.010;8.946;2023-02-18T08:26:49;98377.50;;;12.12;63.75
19596;BME280;9945;46.010;8.946;2023-02-18T08:29:16;98376.66;;;12.32;62.31
19596;BME280;9945;46.010;8.946;2023-02-18T08:31:44;98365.44;;;12.61;62.14
19596;BME280;9945;46.010;8.946;2023-02-18T08:34:11;98368.09;;;12.70;62.27
19596;BME280;9945;46.010;8.946;2023-02-18T08:36:38;98369.72;;;13.02;60.95
19596;BME280;9945;46.010;8.946;2023-02-18T08:39:05;98369.00;;;13.30;60.21
19596;BME280;9945;46.010;8.946;2023-02-18T08:41:32;98367.22;;;13.40;57.39
19596;BME280;9945;46.010;8.946;2023-02-18T08:43:59;98365.59;;;13.09;58.78
19596;BME280;9945;46.010;8.946;2023-02-18T08:46:25;98363.47;;;13.43;59.51
19596;BME280;9945;46.010;8.946;2023-02-18T08:48:54;98369.88;;;13.69;58.68
19596;BME280;9945;46.010;8.946;2023-02-18T08:51:21;98371.50;;;13.89;58.09
19596;BME280;9945;46.010;8.946;2023-02-18T08:53:48;98368.19;;;13.58;58.17
19596;BME280;9945;46.010;8.946;2023-02-18T08:56:15;98372.75;;;13.76;56.92
19596;BME280;9945;46.010;8.946;2023-02-18T08:58:43;98365.56;;;13.58;59.10
19596;BME280;9945;46.010;8.946;2023-02-18T09:01:11;98362.38;;;13.74;58.75
19596;BME280;9945;46.010;8.946;2023-02-18T09:03:39;98363.78;;;13.69;58.36
19596;BME280;9945;46.010;8.946;2023-02-18T09:06:08;98362.06;;;14.06;56.57
19596;BME280;9945;46.010;8.946;2023-02-18T09:08:35;98356.44;;;14.48;55.92
19596;BME280;9945;46.010;8.946;2023-02-18T09:11:02;98356.84;;;14.80;55.53
19596;BME280;9945;46.010;8.946;2023-02-18T09:13:30;98353.38;;;14.52;56.58
19596;BME280;9945;46.010;8.946;2023-02-18T09:15:58;98346.94;;;14.92;56.21
19596;BME280;9945;46.010;8.946;2023-02-18T09:18:26;98346.63;;;15.40;55.06
19596;BME280;9945;46.010;8.946;2023-02-18T09:20:55;98348.94;;;15.88;53.09
19596;BME280;9945;46.010;8.946;2023-02-18T09:23:24;98355.38;;;15.40;53.85
19596;BME280;9945;46.010;8.946;2023-02-18T09:25:51;98346.66;;;16.19;51.05
19596;BME280;9945;46.010;8.946;2023-02-18T09:28:18;98345.94;;;16.94;49.65
19596;BME280;9945;46.010;8.946;2023-02-18T09:30:45;98346.75;;;17.53;46.59
19596;BME280;9945;46.010;8.946;2023-02-18T09:33:13;98349.78;;;17.99;45.40
19596;BME280;9945;46.010;8.946;2023-02-18T09:35:40;98353.50;;;17.39;46.36
19596;BME280;9945;46.010;8.946;2023-02-18T09:38:08;98358.72;;;17.65;46.84
19596;BME280;9945;46.010;8.946;2023-02-18T09:40:41;98344.22;;;18.49;45.04
19596;BME280;9945;46.010;8.946;2023-02-18T09:43:17;98344.56;;;19.32;41.99
19596;BME280;9945;46.010;8.946;2023-02-18T09:45:44;98351.94;;;19.98;40.61
19596;BME280;9945;46.010;8.946;2023-02-18T09:48:11;98338.69;;;20.65;39.52
19596;BME280;9945;46.010;8.946;2023-02-18T09:50:38;98340.34;;;21.32;37.89
19596;BME280;9945;46.010;8.946;2023-02-18T09:53:05;98334.41;;;22.15;36.39
19596;BME280;9945;46.010;8.946;2023-02-18T09:55:34;98336.88;;;23.20;34.01
19596;BME280;9945;46.010;8.946;2023-02-18T09:58:07;98331.28;;;24.02;32.03
19596;BME280;9945;46.010;8.946;2023-02-18T10:00:40;98335.63;;;24.03;31.32
19596;BME280;9945;46.010;8.946;2023-02-18T10:03:12;98331.25;;;25.32;30.30
19596;BME280;9945;46.010;8.946;2023-02-18T10:05:42;98323.91;;;26.58;28.98
19596;BME280;9945;46.010;8.946;2023-02-18T10:08:18;98324.88;;;27.55;26.94
19596;BME280;9945;46.010;8.946;2023-02-18T10:10:47;98316.97;;;27.72;26.51
19596;BME280;9945;46.010;8.946;2023-02-18T10:13:17;98325.38;;;27.64;26.26
19596;BME280;9945;46.010;8.946;2023-02-18T10:15:45;98318.59;;;27.84;26.43
19596;BME280;9945;46.010;8.946;2023-02-18T10:18:28;98321.13;;;27.38;27.04
19596;BME280;9945;46.010;8.946;2023-02-18T10:21:02;98322.41;;;27.54;26.58
19596;BME280;9945;46.010;8.946;2023-02-18T10:23:31;98322.56;;;27.82;26.33
19596;BME280;9945;46.010;8.946;2023-02-18T10:26:02;98314.25;;;28.83;26.07
19596;BME280;9945;46.010;8.946;2023-02-18T10:28:34;98323.97;;;29.24;25.30
19596;BME280;9945;46.010;8.946;2023-02-18T10:31:04;98321.50;;;29.23;24.09
19596;BME280;9945;46.010;8.946;2023-02-18T10:33:37;98318.06;;;28.99;24.88
19596;BME280;9945;46.010;8.946;2023-02-18T10:36:16;98316.34;;;28.46;24.80
19596;BME280;9945;46.010;8.946;2023-02-18T10:39:01;98324.75;;;26.59;26.79
19596;BME280;9945;46.010;8.946;2023-02-18T10:41:37;98321.13;;;26.47;27.61
19596;BME280;9945;46.010;8.946;2023-02-18T10:44:15;98314.72;;;26.48;26.74
19596;BME280;9945;46.010;8.946;2023-02-18T10:46:50;98319.41;;;25.84;28.00
19596;BME280;9945;46.010;8.946;2023-02-18T10:49:36;98311.50;;;26.14;27.12
19596;BME280;9945;46.010;8.946;2023-02-18T10:52:09;98312.88;;;26.23;26.66
19596;BME280;9945;46.010;8.946;2023-02-18T10:54:52;98309.50;;;26.34;26.57
19596;BME280;9945;46.010;8.946;2023-02-18T10:57:23;98306.31;;;26.62;26.53
19596;BME280;9945;46.010;8.946;2023-02-18T10:59:58;98300.88;;;26.01;26.91
19596;BME280;9945;46.010;8.946;2023-02-18T11:02:27;98295.19;;;26.77;26.38
19596;BME280;9945;46.010;8.946;2023-02-18T11:04:57;98291.94;;;27.23;26.26
19596;BME280;9945;46.010;8.946;2023-02-18T11:07:30;98296.25;;;27.72;25.23
19596;BME280;9945;46.010;8.946;2023-02-18T11:10:00;98294.34;;;27.61;25.37
19596;BME280;9945;46.010;8.946;2023-02-18T11:12:29;98286.59;;;27.35;25.70
19596;BME280;9945;46.010;8.946;2023-02-18T11:15:15;98283.16;;;27.46;25.88
19596;BME280;9945;46.010;8.946;2023-02-18T11:17:44;98277.84;;;27.69;25.29
19596;BME280;9945;46.010;8.946;2023-02-18T11:20:24;98266.28;;;27.92;24.75
19596;BME280;9945;46.010;8.946;2023-02-18T11:22:56;98268.63;;;27.89;25.18
19596;BME280;9945;46.010;8.946;2023-02-18T11:25:24;98268.03;;;28.68;24.78
19596;BME280;9945;46.010;8.946;2023-02-18T11:27:54;98264.13;;;28.99;24.27
19596;BME280;9945;46.010;8.946;2023-02-18T11:30:26;98261.97;;;29.01;23.94
19596;BME280;9945;46.010;8.946;2023-02-18T11:32:59;98261.78;;;29.19;23.68
19596;BME280;9945;46.010;8.946;2023-02-18T11:35:29;98249.97;;;29.82;22.86
19596;BME280;9945;46.010;8.946;2023-02-18T11:37:58;98249.38;;;30.30;23.12
19596;BME280;9945;46.010;8.946;2023-02-18T11:40:29;98246.72;;;30.74;21.71
19596;BME280;9945;46.010;8.946;2023-02-18T11:43:04;98242.28;;;30.07;23.41
19596;BME280;9945;46.010;8.946;2023-02-18T11:45:34;98240.13;;;31.35;22.17
19596;BME280;9945;46.010;8.946;2023-02-18T11:48:07;98226.94;;;31.44;21.60
19596;BME280;9945;46.010;8.946;2023-02-18T11:50:34;98223.25;;;30.79;22.44
19596;BME280;9945;46.010;8.946;2023-02-18T11:53:26;98224.97;;;31.98;20.98
19596;BME280;9945;46.010;8.946;2023-02-18T11:55:54;98209.06;;;32.12;20.86
19596;BME280;9945;46.010;8.946;2023-02-18T11:58:21;98212.69;;;31.85;21.24
19596;BME280;9945;46.010;8.946;2023-02-18T12:00:52;98207.06;;;31.97;20.68
19596;BME280;9945;46.010;8.946;2023-02-18T12:03:27;98204.69;;;31.10;21.25
19596;BME280;9945;46.010;8.946;2023-02-18T12:05:59;98204.56;;;31.58;21.54
19596;BME280;9945;46.010;8.946;2023-02-18T12:08:29;98196.06;;;32.66;20.67
19596;BME280;9945;46.010;8.946;2023-02-18T12:11:01;98198.13;;;33.16;19.56
19596;BME280;9945;46.010;8.946;2023-02-18T12:13:32;98189.50;;;33.39;19.50
19596;BME280;9945;46.010;8.946;2023-02-18T12:16:10;98187.59;;;33.65;19.78
19596;BME280;9945;46.010;8.946;2023-02-18T12:18:58;98178.22;;;35.02;18.19
19596;BME280;9945;46.010;8.946;2023-02-18T12:21:41;98178.72;;;36.11;17.44
19596;BME280;9945;46.010;8.946;2023-02-18T12:24:21;98172.78;;;36.75;17.11
19596;BME280;9945;46.010;8.946;2023-02-18T12:26:59;98163.13;;;33.60;18.67
19596;BME280;9945;46.010;8.946;2023-02-18T12:29:42;98156.22;;;34.88;18.71
19596;BME280;9945;46.010;8.946;2023-02-18T12:32:28;98156.00;;;36.63;17.34
19596;BME280;9945;46.010;8.946;2023-02-18T12:35:10;98156.19;;;37.09;16.63
19596;BME280;9945;46.010;8.946;2023-02-18T12:37:51;98152.53;;;36.10;16.89
19596;BME280;9945;46.010;8.946;2023-02-18T12:43:29;98136.69;;;35.88;17.52
19596;BME280;9945;46.010;8.946;2023-02-18T12:46:18;98123.25;;;35.34;17.87
19596;BME280;9945;46.010;8.946;2023-02-18T12:48:57;98118.19;;;35.51;18.33
19596;BME280;9945;46.010;8.946;2023-02-18T12:51:37;98114.31;;;35.28;18.17
19596;BME280;9945;46.010;8.946;2023-02-18T12:54:21;98112.25;;;34.66;18.35
19596;BME280;9945;46.010;8.946;2023-02-18T12:57:10;98112.84;;;33.68;18.97
19596;BME280;9945;46.010;8.946;2023-02-18T13:00:02;98109.03;;;33.18;20.18
19596;BME280;9945;46.010;8.946;2023-02-18T13:02:57;98099.81;;;33.55;19.58
19596;BME280;9945;46.010;8.946;2023-02-18T13:05:39;98098.72;;;33.10;19.48
19596;BME280;9945;46.010;8.946;2023-02-18T13:08:25;98096.16;;;31.90;20.67
19596;BME280;9945;46.010;8.946;2023-02-18T13:11:02;98100.56;;;32.64;20.29
19596;BME280;9945;46.010;8.946;2023-02-18T13:13:32;98095.72;;;33.01;19.60
19596;BME280;9945;46.010;8.946;2023-02-18T13:16:02;98092.47;;;33.04;20.21
19596;BME280;9945;46.010;8.946;2023-02-18T13:18:33;98092.50;;;33.30;20.36
19596;BME280;9945;46.010;8.946;2023-02-18T13:21:08;98093.56;;;33.54;19.83
19596;BME280;9945;46.010;8.946;2023-02-18T13:23:39;98082.19;;;33.22;19.89
19596;BME280;9945;46.010;8.946;2023-02-18T13:26:10;98078.09;;;32.89;19.98
19596;BME280;9945;46.010;8.946;2023-02-18T13:28:43;98069.91;;;31.96;20.81
19596;BME280;9945;46.010;8.946;2023-02-18T13:31:22;98065.97;;;30.98;21.48
19596;BME280;9945;46.010;8.946;2023-02-18T13:33:56;98055.41;;;30.42;22.54
19596;BME280;9945;46.010;8.946;2023-02-18T13:36:35;98050.28;;;29.97;22.21
19596;BME280;9945;46.010;8.946;2023-02-18T13:39:07;98043.88;;;29.10;23.89
19596;BME280;9945;46.010;8.946;2023-02-18T13:41:37;98048.00;;;29.67;23.61
19596;BME280;9945;46.010;8.946;2023-02-18T13:44:09;98044.38;;;30.22;23.05